createdAt,value
2023-01-22T00:01:12.333Z,6.57
2023-01-22T00:03:41.048Z,6.70
2023-01-22T00:06:10.368Z,5.65
2023-01-22T00:08:37.784Z,6.22
2023-01-22T00:11:05.104Z,6.20
2023-01-22T00:13:32.535Z,5.93
2023-01-22T00:16:00.167Z,6.32
2023-01-22T00:18:27.349Z,6.68
2023-01-22T00:20:55.182Z,6.18
2023-01-22T00:23:23.364Z,5.57
2023-01-22T00:25:59.999Z,6.45
2023-01-22T00:28:27.054Z,6.20
2023-01-22T00:31:04.078Z,6.03
2023-01-22T00:33:32.492Z,6.20
2023-01-22T00:36:08.548Z,6.80
2023-01-22T00:38:36.852Z,6.30
2023-01-22T00:41:06.991Z,6.40
2023-01-22T00:43:35.544Z,6.22
2023-01-22T00:46:02.510Z,6.53
2023-01-22T00:48:29.836Z,6.00
2023-01-22T00:50:56.967Z,6.75
2023-01-22T00:53:24.097Z,6.07
2023-01-22T00:55:59.823Z,6.22
2023-01-22T00:58:28.783Z,5.95
2023-01-22T01:00:56.246Z,6.03
2023-01-22T01:03:32.086Z,6.30
2023-01-22T01:06:07.933Z,6.72
2023-01-22T01:08:42.087Z,5.85
2023-01-22T01:11:14.890Z,6.38
2023-01-22T01:13:43.344Z,6.20
2023-01-22T01:16:29.723Z,6.90
2023-01-22T01:19:09.988Z,6.57
2023-01-22T01:21:37.177Z,7.25
2023-01-22T01:24:04.833Z,6.13
2023-01-22T01:26:33.394Z,6.70
2023-01-22T01:29:00.351Z,6.45
2023-01-22T01:31:27.417Z,7.13
2023-01-22T01:33:57.666Z,6.60
2023-01-22T01:36:46.268Z,6.95
2023-01-22T01:39:12.624Z,6.32
2023-01-22T01:41:39.552Z,6.70
2023-01-22T01:44:10.317Z,6.65
2023-01-22T01:46:57.491Z,6.93
2023-01-22T01:49:48.730Z,6.22
2023-01-22T01:52:18.321Z,7.20
2023-01-22T01:54:52.547Z,6.82
2023-01-22T01:57:33.429Z,6.18
2023-01-22T02:00:02.603Z,6.65
2023-01-22T02:02:41.428Z,6.10
2023-01-22T02:05:10.337Z,7.47
2023-01-22T02:07:37.557Z,7.35
2023-01-22T02:10:06.264Z,7.05
2023-01-22T02:12:36.285Z,7.00
2023-01-22T02:15:05.311Z,6.90
2023-01-22T02:17:32.894Z,7.50
2023-01-22T02:19:59.905Z,6.93
2023-01-22T02:22:33.398Z,7.32
2023-01-22T02:25:01.481Z,6.47
2023-01-22T02:27:28.415Z,6.82
2023-01-22T02:29:55.505Z,7.10
2023-01-22T02:32:22.531Z,6.85
2023-01-22T02:34:49.578Z,6.43
2023-01-22T02:37:17.349Z,6.68
2023-01-22T02:39:44.325Z,6.82
2023-01-22T02:42:12.247Z,7.15
2023-01-22T02:44:41.009Z,6.78
2023-01-22T02:47:07.941Z,7.10
2023-01-22T02:49:34.886Z,6.97
2023-01-22T02:52:01.897Z,7.22
2023-01-22T02:54:30.254Z,6.45
2023-01-22T02:56:57.206Z,6.32
2023-01-22T02:59:24.499Z,6.35
2023-01-22T03:01:51.770Z,7.00
2023-01-22T03:04:18.737Z,6.68
2023-01-22T03:06:47.048Z,6.68
2023-01-22T03:09:17.531Z,7.03
2023-01-22T03:11:46.913Z,6.10
2023-01-22T03:14:43.171Z,5.72
2023-01-22T03:17:29.401Z,6.30
2023-01-22T03:20:17.701Z,6.00
2023-01-22T03:22:44.814Z,6.10
2023-01-22T03:25:11.755Z,6.55
2023-01-22T03:27:58.709Z,6.05
2023-01-22T03:30:26.134Z,6.15
2023-01-22T03:32:53.037Z,6.90
2023-01-22T03:35:20.096Z,6.30
2023-01-22T03:38:02.134Z,6.38
2023-01-22T03:40:29.079Z,6.93
2023-01-22T03:42:56.526Z,7.00
2023-01-22T03:45:23.531Z,6.57
2023-01-22T03:47:53.139Z,6.95
2023-01-22T03:50:26.319Z,6.47
2023-01-22T03:52:55.356Z,6.43
2023-01-22T03:55:22.279Z,6.82
2023-01-22T03:57:49.376Z,6.38
2023-01-22T04:00:18.274Z,6.75
2023-01-22T04:02:45.549Z,6.93
2023-01-22T04:05:20.380Z,6.32
2023-01-22T04:07:50.331Z,6.43
2023-01-22T04:10:19.880Z,6.70
2023-01-22T04:12:47.773Z,5.72
2023-01-22T04:15:17.469Z,6.00
2023-01-22T04:17:45.714Z,6.30
2023-01-22T04:20:32.881Z,6.38
2023-01-22T04:23:21.911Z,6.00
2023-01-22T04:25:52.055Z,6.40
2023-01-22T04:28:20.289Z,5.95
2023-01-22T04:30:54.722Z,6.55
2023-01-22T04:33:37.648Z,5.68
2023-01-22T04:36:10.568Z,6.28
2023-01-22T04:38:37.865Z,6.03
2023-01-22T04:41:04.890Z,5.75
2023-01-22T04:43:32.991Z,5.80
2023-01-22T04:45:59.948Z,6.43
2023-01-22T04:48:30.896Z,5.00
2023-01-22T04:50:57.874Z,5.38
2023-01-22T04:53:28.283Z,5.33
2023-01-22T04:55:55.649Z,5.88
2023-01-22T04:58:22.597Z,6.15
2023-01-22T05:00:51.053Z,6.03
2023-01-22T05:03:18.094Z,5.53
2023-01-22T05:05:45.036Z,5.55
2023-01-22T05:08:12.436Z,5.65
2023-01-22T05:10:39.415Z,6.30
2023-01-22T05:13:09.000Z,5.53
2023-01-22T05:15:37.230Z,5.28
2023-01-22T05:18:08.644Z,5.22
2023-01-22T05:20:37.527Z,5.43
2023-01-22T05:23:04.697Z,5.45
2023-01-22T05:25:32.120Z,5.03
2023-01-22T05:27:59.615Z,4.75
2023-01-22T05:30:49.942Z,5.13
2023-01-22T05:33:35.517Z,5.57
2023-01-22T05:36:03.936Z,5.57
2023-01-22T05:38:31.953Z,5.13
2023-01-22T05:40:58.988Z,5.20
2023-01-22T05:43:28.466Z,5.03
2023-01-22T05:46:04.566Z,4.35
2023-01-22T05:48:46.682Z,5.22
2023-01-22T05:51:18.406Z,5.15
2023-01-22T05:53:45.987Z,4.95
2023-01-22T05:56:14.066Z,4.88
2023-01-22T05:58:41.006Z,4.90
2023-01-22T06:01:07.991Z,4.97
2023-01-22T06:03:40.897Z,4.80
2023-01-22T06:06:11.587Z,4.80
2023-01-22T06:08:39.327Z,4.50
2023-01-22T06:11:15.725Z,4.00
2023-01-22T06:13:46.196Z,4.40
2023-01-22T06:16:21.083Z,4.50
2023-01-22T06:19:10.385Z,4.35
2023-01-22T06:21:43.563Z,4.18
2023-01-22T06:24:11.264Z,4.47
2023-01-22T06:26:38.373Z,4.40
2023-01-22T06:29:07.772Z,4.13
2023-01-22T06:31:35.694Z,5.10
2023-01-22T06:34:06.709Z,4.88
2023-01-22T06:36:33.732Z,4.57
2023-01-22T06:39:00.930Z,4.03
2023-01-22T06:41:37.673Z,4.35
2023-01-22T06:44:07.671Z,4.40
2023-01-22T06:46:34.712Z,4.53
2023-01-22T06:49:10.639Z,4.20
2023-01-22T06:51:39.841Z,4.07
2023-01-22T06:54:07.059Z,3.92
2023-01-22T06:56:34.067Z,4.05
2023-01-22T06:59:03.426Z,4.10
2023-01-22T07:01:30.665Z,5.18
2023-01-22T07:03:57.593Z,4.97
2023-01-22T07:06:24.552Z,4.22
2023-01-22T07:08:52.042Z,4.82
2023-01-22T07:11:19.001Z,4.78
2023-01-22T07:13:45.905Z,4.38
2023-01-22T07:16:13.082Z,4.70
2023-01-22T07:18:40.047Z,5.22
2023-01-22T07:21:07.088Z,4.47
2023-01-22T07:23:34.035Z,4.30
2023-01-22T07:26:00.967Z,4.00
2023-01-22T07:28:27.983Z,4.43
2023-01-22T07:30:56.451Z,4.50
2023-01-22T07:33:23.534Z,3.90
2023-01-22T07:35:57.089Z,4.00
2023-01-22T07:38:27.288Z,3.72
2023-01-22T07:40:55.611Z,4.00
2023-01-22T07:43:22.544Z,3.80
2023-01-22T07:45:49.470Z,3.72
2023-01-22T07:48:16.535Z,3.67
2023-01-22T07:50:43.523Z,4.22
2023-01-22T07:53:11.714Z,3.80
2023-01-22T07:55:40.142Z,4.18
2023-01-22T07:58:07.904Z,3.97
2023-01-22T08:00:35.817Z,4.63
2023-01-22T08:03:10.363Z,3.67
2023-01-22T08:05:39.937Z,3.90
2023-01-22T08:08:18.851Z,4.03
2023-01-22T08:10:45.828Z,3.90
2023-01-22T08:13:12.896Z,4.30
2023-01-22T08:15:41.294Z,3.75
2023-01-22T08:18:10.300Z,4.10
2023-01-22T08:20:37.370Z,4.38
2023-01-22T08:23:04.312Z,4.57
2023-01-22T08:25:31.221Z,4.55
2023-01-22T08:28:03.400Z,4.22
2023-01-22T08:30:31.098Z,4.47
2023-01-22T08:32:58.082Z,4.45
2023-01-22T08:35:25.271Z,3.70
2023-01-22T08:37:52.187Z,3.83
2023-01-22T08:40:19.426Z,4.15
2023-01-22T08:42:52.013Z,4.30
2023-01-22T08:45:19.133Z,3.92
2023-01-22T08:47:46.123Z,4.63
2023-01-22T08:50:13.641Z,4.57
2023-01-22T08:52:40.640Z,4.53
2023-01-22T08:55:09.893Z,4.50
2023-01-22T08:57:37.526Z,4.53
2023-01-22T09:00:06.239Z,4.28
2023-01-22T09:02:33.093Z,4.50
2023-01-22T09:05:00.088Z,3.60
2023-01-22T09:07:26.999Z,4.10
2023-01-22T09:09:53.938Z,4.20
2023-01-22T09:12:20.899Z,4.20
2023-01-22T09:14:48.219Z,4.32
2023-01-22T09:17:15.142Z,4.32
2023-01-22T09:19:42.039Z,4.10
2023-01-22T09:22:08.948Z,4.15
2023-01-22T09:24:35.853Z,4.15
2023-01-22T09:27:02.825Z,4.32
2023-01-22T09:29:29.881Z,4.40
2023-01-22T09:31:57.078Z,3.75
2023-01-22T09:34:24.090Z,4.28
2023-01-22T09:36:51.083Z,4.13
2023-01-22T09:39:18.469Z,3.78
2023-01-22T09:41:55.834Z,4.50
2023-01-22T09:44:44.516Z,3.75
2023-01-22T09:47:26.411Z,4.07
2023-01-22T09:50:22.016Z,3.67
2023-01-22T09:52:52.651Z,4.20
2023-01-22T09:55:23.880Z,4.60
2023-01-22T09:57:54.992Z,4.05
2023-01-22T10:03:04.818Z,5.07
2023-01-22T10:05:41.152Z,5.10
2023-01-22T10:08:26.066Z,5.20
2023-01-22T10:10:53.483Z,5.32
2023-01-22T10:13:37.133Z,4.80
2023-01-22T10:16:05.657Z,4.75
2023-01-22T10:19:00.517Z,4.35
2023-01-22T10:21:32.004Z,5.38
2023-01-22T10:23:59.675Z,4.40
2023-01-22T10:26:42.880Z,4.28
2023-01-22T10:29:29.384Z,4.53
2023-01-22T10:32:01.928Z,4.90
2023-01-22T10:34:36.649Z,4.50
2023-01-22T10:37:17.771Z,4.70
2023-01-22T10:39:47.949Z,4.35
2023-01-22T10:42:27.618Z,4.23
2023-01-22T10:45:14.655Z,4.85
2023-01-22T10:47:41.643Z,4.80
2023-01-22T10:50:16.797Z,4.43
2023-01-22T10:52:51.706Z,4.60
2023-01-22T10:55:29.824Z,4.13
2023-01-22T10:58:14.027Z,4.32
2023-01-22T11:00:51.413Z,4.15
2023-01-22T11:03:23.533Z,4.38
2023-01-22T11:06:06.186Z,4.35
2023-01-22T11:09:12.164Z,4.13
2023-01-22T11:11:48.349Z,4.05
2023-01-22T11:14:32.675Z,3.95
2023-01-22T11:17:16.344Z,3.53
2023-01-22T11:20:00.493Z,4.10
2023-01-22T11:22:43.455Z,4.03
2023-01-22T11:25:11.529Z,4.35
2023-01-22T11:28:02.387Z,4.30
2023-01-22T11:31:14.564Z,4.35
2023-01-22T11:33:48.267Z,3.78
2023-01-22T11:36:45.596Z,3.72
2023-01-22T11:39:58.029Z,4.00
2023-01-22T11:42:37.082Z,4.30
2023-01-22T11:45:47.413Z,3.90
2023-01-22T11:48:46.363Z,4.10
2023-01-22T11:51:39.858Z,3.53
2023-01-22T11:54:33.829Z,3.95
2023-01-22T11:57:37.403Z,3.30
2023-01-22T12:00:51.445Z,3.30
2023-01-22T12:04:04.288Z,3.13
2023-01-22T12:06:58.723Z,3.17
2023-01-22T12:10:31.075Z,3.67
2023-01-22T12:13:43.123Z,3.45
2023-01-22T12:16:44.491Z,4.05
2023-01-22T12:20:03.590Z,5.25
2023-01-22T12:22:50.414Z,4.80
2023-01-22T12:25:34.426Z,4.90
2023-01-22T12:28:13.841Z,4.70
2023-01-22T12:31:26.186Z,5.22
2023-01-22T12:33:53.217Z,4.47
2023-01-22T12:36:24.515Z,4.20
2023-01-22T12:39:06.793Z,4.00
2023-01-22T12:42:02.036Z,4.00
2023-01-22T12:44:55.151Z,3.13
2023-01-22T12:47:48.687Z,3.65
2023-01-22T12:50:23.325Z,3.38
2023-01-22T12:53:06.190Z,3.78
2023-01-22T12:55:38.112Z,3.90
2023-01-22T12:58:17.752Z,3.95
2023-01-22T13:00:44.803Z,3.83
2023-01-22T13:03:32.040Z,3.50
2023-01-22T13:06:02.403Z,3.78
2023-01-22T13:08:41.573Z,3.90
2023-01-22T13:11:13.223Z,5.05
2023-01-22T13:13:56.744Z,5.18
2023-01-22T13:16:37.375Z,4.82
2023-01-22T13:19:27.523Z,4.28
2023-01-22T13:22:00.170Z,4.13
2023-01-22T13:24:27.152Z,4.20
2023-01-22T13:27:01.619Z,3.88
2023-01-22T13:29:39.213Z,3.90
2023-01-22T13:32:22.742Z,3.75
2023-01-22T13:34:49.747Z,3.75
2023-01-22T13:37:28.131Z,3.92
2023-01-22T13:39:55.060Z,3.78
2023-01-22T13:42:24.757Z,4.05
2023-01-22T13:44:52.290Z,3.60
2023-01-22T13:47:33.087Z,4.03
2023-01-22T13:50:01.295Z,3.35
2023-01-22T13:52:29.257Z,3.20
2023-01-22T13:55:15.801Z,4.00
2023-01-22T13:57:52.438Z,3.33
2023-01-22T14:00:34.083Z,3.55
2023-01-22T14:03:01.888Z,3.47
2023-01-22T14:05:34.032Z,3.40
2023-01-22T14:08:11.016Z,3.50
2023-01-22T14:10:41.226Z,3.83
2023-01-22T14:13:12.119Z,3.28
2023-01-22T14:15:40.939Z,3.47
2023-01-22T14:18:17.203Z,3.90
2023-01-22T14:20:47.172Z,3.55
2023-01-22T14:23:15.434Z,3.35
2023-01-22T14:25:53.036Z,3.47
2023-01-22T14:28:22.529Z,3.30
2023-01-22T14:30:50.466Z,3.00
2023-01-22T14:33:33.178Z,3.30
2023-01-22T14:36:01.101Z,3.50
2023-01-22T14:38:28.645Z,3.78
2023-01-22T14:40:56.615Z,3.45
2023-01-22T14:43:23.631Z,3.83
2023-01-22T14:45:51.588Z,3.50
2023-01-22T14:48:20.443Z,3.53
2023-01-22T14:50:48.899Z,3.90
2023-01-22T14:53:17.092Z,3.63
2023-01-22T14:55:45.453Z,3.50
2023-01-22T14:58:12.530Z,3.83
2023-01-22T15:00:39.906Z,3.92
2023-01-22T15:03:06.990Z,3.80
2023-01-22T15:05:35.759Z,4.22
2023-01-22T15:08:03.142Z,4.32
2023-01-22T15:10:30.074Z,4.32
2023-01-22T15:12:57.095Z,4.13
2023-01-22T15:15:26.828Z,4.28
2023-01-22T15:17:57.043Z,4.05
2023-01-22T15:20:24.668Z,2.87
2023-01-22T15:22:51.926Z,3.75
2023-01-22T15:25:18.939Z,4.00
2023-01-22T15:27:46.336Z,3.78
2023-01-22T15:30:14.268Z,4.18
2023-01-22T15:32:41.248Z,3.15
2023-01-22T15:35:08.859Z,3.63
2023-01-22T15:37:36.123Z,3.47
2023-01-22T15:40:03.793Z,3.63
2023-01-22T15:42:30.759Z,3.50
2023-01-22T15:44:57.690Z,3.85
2023-01-22T15:47:24.704Z,4.25
2023-01-22T15:49:51.621Z,3.47
2023-01-22T15:52:18.944Z,4.50
2023-01-22T15:54:46.274Z,4.45
2023-01-22T15:57:14.134Z,4.20
2023-01-22T15:59:41.962Z,4.28
2023-01-22T16:02:12.320Z,4.18
2023-01-22T16:04:39.361Z,3.63
2023-01-22T16:07:06.311Z,3.80
2023-01-22T16:09:34.556Z,3.28
2023-01-22T16:12:01.541Z,3.65
2023-01-22T16:14:29.131Z,3.90
2023-01-22T16:16:56.145Z,3.45
2023-01-22T16:19:23.128Z,3.17
2023-01-22T16:21:52.213Z,3.53
2023-01-22T16:24:19.249Z,3.95
2023-01-22T16:26:46.186Z,3.75
2023-01-22T16:29:13.230Z,4.00
2023-01-22T16:31:40.173Z,4.40
2023-01-22T16:34:17.747Z,4.95
2023-01-22T16:36:45.242Z,5.93
2023-01-22T16:39:23.536Z,5.38
2023-01-22T16:41:52.168Z,4.70
2023-01-22T16:44:26.251Z,4.82
2023-01-22T16:46:57.452Z,4.35
2023-01-22T16:51:58.074Z,3.92
2023-01-22T16:54:31.571Z,4.22
2023-01-22T16:57:09.736Z,4.63
2023-01-22T16:59:37.586Z,4.00
2023-01-22T17:02:07.991Z,3.63
2023-01-22T17:04:34.936Z,3.25
2023-01-22T17:07:01.824Z,3.63
2023-01-22T17:09:32.261Z,3.40
2023-01-22T17:12:05.672Z,3.88
2023-01-22T17:14:36.996Z,3.78
2023-01-22T17:17:07.006Z,4.15
2023-01-22T17:19:34.400Z,4.20
2023-01-22T17:22:01.828Z,4.05
2023-01-22T17:24:30.714Z,3.95
2023-01-22T17:26:58.191Z,3.92
2023-01-22T17:29:25.951Z,4.00
2023-01-22T17:31:53.458Z,3.78
2023-01-22T17:34:20.525Z,3.72
2023-01-22T17:36:50.469Z,3.42
2023-01-22T17:39:19.820Z,3.55
2023-01-22T17:41:47.021Z,3.90
2023-01-22T17:44:14.013Z,3.90
2023-01-22T17:46:41.241Z,3.70
2023-01-22T17:49:11.038Z,3.83
2023-01-22T17:51:38.100Z,4.45
2023-01-22T17:54:05.968Z,3.75
2023-01-22T17:56:36.439Z,3.72
2023-01-22T17:59:06.677Z,3.83
2023-01-22T18:01:36.568Z,3.80
2023-01-22T18:04:09.623Z,3.95
2023-01-22T18:06:38.433Z,3.80
2023-01-22T18:09:06.723Z,3.72
2023-01-22T18:11:35.048Z,3.33
2023-01-22T18:14:06.190Z,3.63
2023-01-22T18:19:05.293Z,3.40
2023-01-22T18:21:32.328Z,3.17
2023-01-22T18:24:01.725Z,3.53
2023-01-22T18:26:29.179Z,3.95
2023-01-22T18:28:58.435Z,3.70
2023-01-22T18:31:28.026Z,3.47
2023-01-22T18:34:01.247Z,3.70
2023-01-22T18:36:33.952Z,3.58
2023-01-22T18:39:07.140Z,4.05
2023-01-22T18:41:34.559Z,4.47
2023-01-22T18:44:02.626Z,4.13
2023-01-22T18:46:36.731Z,4.43
2023-01-22T18:49:16.186Z,3.88
2023-01-22T18:51:45.084Z,3.60
2023-01-22T18:54:12.588Z,4.03
2023-01-22T18:56:40.315Z,3.80
2023-01-22T18:59:07.942Z,3.90
2023-01-22T19:01:38.510Z,3.42
2023-01-22T19:04:08.671Z,3.60
2023-01-22T19:06:38.551Z,3.63
2023-01-22T19:09:14.113Z,3.85
2023-01-22T19:11:46.985Z,4.03
2023-01-22T19:14:17.498Z,3.65
2023-01-22T19:16:48.337Z,3.53
2023-01-22T19:19:17.242Z,3.72
2023-01-22T19:21:47.130Z,4.03
2023-01-22T19:24:17.433Z,3.58
2023-01-22T19:26:46.681Z,4.23
2023-01-22T19:29:17.580Z,3.67
2023-01-22T19:31:48.357Z,4.45
2023-01-22T19:34:23.037Z,5.68
2023-01-22T19:36:56.599Z,6.38
2023-01-22T19:39:28.143Z,6.75
2023-01-22T19:41:56.557Z,6.20
2023-01-22T19:44:23.528Z,5.78
2023-01-22T19:46:50.493Z,5.63
2023-01-22T19:49:17.606Z,5.00
2023-01-22T19:51:44.574Z,5.43
2023-01-22T19:54:11.951Z,5.18
2023-01-22T19:56:41.339Z,4.97
2023-01-22T19:59:14.451Z,4.60
2023-01-22T20:01:42.812Z,4.38
2023-01-22T20:04:18.047Z,4.88
2023-01-22T20:06:45.780Z,5.03
2023-01-22T20:09:13.296Z,4.45
2023-01-22T20:11:40.623Z,4.05
2023-01-22T20:14:07.525Z,4.57
2023-01-22T20:16:34.549Z,4.85
2023-01-22T20:19:01.602Z,4.35
2023-01-22T20:21:30.026Z,4.80
2023-01-22T20:23:57.099Z,4.93
2023-01-22T20:26:24.189Z,4.88
2023-01-22T20:28:51.712Z,4.40
2023-01-22T20:31:23.367Z,4.53
2023-01-22T20:33:56.919Z,4.53
2023-01-22T20:36:27.653Z,4.43
2023-01-22T20:38:55.209Z,4.38
2023-01-22T20:41:27.177Z,3.75
2023-01-22T20:43:54.592Z,4.60
2023-01-22T20:46:27.147Z,4.22
2023-01-22T20:48:58.549Z,4.30
2023-01-22T20:51:28.478Z,3.42
2023-01-22T20:53:57.619Z,3.72
2023-01-22T20:56:30.267Z,3.70
2023-01-22T20:59:07.886Z,3.63
2023-01-22T21:01:35.491Z,4.45
2023-01-22T21:04:03.224Z,3.80
2023-01-22T21:06:34.067Z,4.32
2023-01-22T21:09:01.600Z,3.70
2023-01-22T21:11:30.952Z,4.32
2023-01-22T21:14:00.465Z,4.18
2023-01-22T21:16:34.224Z,4.30
2023-01-22T21:19:16.617Z,4.00
2023-01-22T21:21:45.201Z,3.80
2023-01-22T21:24:12.881Z,3.97
2023-01-22T21:26:40.073Z,3.55
2023-01-22T21:29:13.829Z,3.67
2023-01-22T21:31:41.076Z,3.03
2023-01-22T21:34:10.395Z,3.38
2023-01-22T21:36:41.343Z,5.13
2023-01-22T21:39:16.819Z,5.35
2023-01-22T21:41:44.600Z,4.30
2023-01-22T21:44:33.230Z,4.93
2023-01-22T21:47:01.029Z,4.63
2023-01-22T21:49:29.012Z,4.95
2023-01-22T21:52:02.229Z,4.95
2023-01-22T21:54:35.240Z,4.65
2023-01-22T21:57:03.348Z,4.70
2023-01-22T21:59:30.366Z,4.40
2023-01-22T22:01:57.670Z,4.20
2023-01-22T22:04:27.452Z,3.88
2023-01-22T22:06:55.013Z,4.20
2023-01-22T22:09:25.649Z,3.90
2023-01-22T22:11:59.434Z,4.38
2023-01-22T22:14:26.778Z,4.32
2023-01-22T22:16:54.586Z,4.40
2023-01-22T22:19:23.608Z,4.93
2023-01-22T22:21:50.996Z,5.10
2023-01-22T22:24:19.370Z,4.60
2023-01-22T22:26:46.783Z,4.80
2023-01-22T22:29:13.707Z,5.60
2023-01-22T22:31:40.710Z,5.15
2023-01-22T22:34:07.659Z,5.40
2023-01-22T22:36:34.869Z,5.20
2023-01-22T22:39:02.683Z,5.38
2023-01-22T22:41:32.980Z,5.47
2023-01-22T22:44:00.218Z,5.43
2023-01-22T22:46:30.389Z,5.18
2023-01-22T22:49:00.151Z,4.40
2023-01-22T22:51:31.914Z,4.07
2023-01-22T22:54:06.302Z,4.05
2023-01-22T22:56:33.683Z,3.70
2023-01-22T22:59:01.233Z,3.70
2023-01-22T23:01:31.120Z,3.47
2023-01-22T23:03:58.226Z,3.28
2023-01-22T23:06:29.985Z,3.33
2023-01-22T23:09:12.815Z,3.00
2023-01-22T23:11:40.361Z,3.35
2023-01-22T23:14:07.874Z,3.33
2023-01-22T23:16:43.272Z,3.25
2023-01-22T23:19:18.422Z,2.92
2023-01-22T23:21:51.332Z,3.25
2023-01-22T23:24:18.314Z,3.15
2023-01-22T23:26:46.433Z,2.97
2023-01-22T23:29:20.527Z,3.35
2023-01-22T23:31:48.148Z,3.25
2023-01-22T23:34:19.147Z,3.47
2023-01-22T23:36:47.804Z,3.40
2023-01-22T23:39:18.652Z,3.22
2023-01-22T23:41:45.859Z,3.90
2023-01-22T23:44:12.905Z,3.90
2023-01-22T23:46:40.738Z,4.18
2023-01-22T23:49:07.692Z,3.97
2023-01-22T23:51:34.611Z,3.85
2023-01-22T23:54:01.706Z,3.60
2023-01-22T23:56:31.626Z,3.63
2023-01-22T23:58:59.910Z,3.58
